TimeCEST,TemperatureF,Dew PointF,Humidity,Sea Level PressureIn,VisibilityMPH,Wind Direction,Wind SpeedMPH,Gust SpeedMPH,PrecipitationIn,Events,Conditions,WindDirDegrees,DateUTC
12:15 AM,59.0,55.4,88,30.04,6.2,SSE,2.3,-,N/A,,Partly Cloudy,150,2013-10-09 22:15:00
12:45 AM,59.0,55.4,88,30.04,6.2,SSE,2.3,-,N/A,,Partly Cloudy,150,2013-10-09 22:45:00
1:15 AM,59.0,55.4,88,30.04,6.2,SSE,3.5,-,N/A,,Partly Cloudy,150,2013-10-09 23:15:00
1:45 AM,59.0,55.4,88,30.04,6.2,SE,5.8,-,N/A,,Partly Cloudy,140,2013-10-09 23:45:00
2:15 AM,59.0,55.4,88,30.04,6.2,SE,1.2,-,N/A,,Partly Cloudy,140,2013-10-10 00:15:00
2:45 AM,59.0,55.4,88,30.04,6.2,SE,1.2,-,N/A,,Partly Cloudy,140,2013-10-10 00:45:00
3:15 AM,59.0,55.4,88,30.04,6.2,Calm,Calm,-,N/A,,Partly Cloudy,0,2013-10-10 01:15:00
3:45 AM,59.0,55.4,88,30.01,6.2,Calm,Calm,-,N/A,,Scattered Clouds,0,2013-10-10 01:45:00
4:15 AM,59.0,55.4,88,30.01,6.2,Calm,Calm,-,N/A,,Mostly Cloudy,0,2013-10-10 02:15:00
4:45 AM,59.0,55.4,88,29.98,6.2,East,2.3,-,N/A,,Partly Cloudy,90,2013-10-10 02:45:00
5:15 AM,59.0,55.4,88,29.98,6.2,SSE,3.5,-,N/A,,Partly Cloudy,150,2013-10-10 03:15:00
5:45 AM,59.0,55.4,88,29.98,6.2,SSE,2.3,-,N/A,,Partly Cloudy,150,2013-10-10 03:45:00
6:15 AM,57.2,53.6,88,29.98,6.2,ESE,1.2,-,N/A,,Partly Cloudy,110,2013-10-10 04:15:00
6:45 AM,57.2,53.6,88,29.95,6.2,SE,1.2,-,N/A,,Partly Cloudy,140,2013-10-10 04:45:00
7:15 AM,57.2,53.6,88,29.95,6.2,ESE,5.8,-,N/A,,Partly Cloudy,120,2013-10-10 05:15:00
7:45 AM,57.2,53.6,88,29.95,6.2,SE,3.5,-,N/A,,Partly Cloudy,130,2013-10-10 05:45:00
8:15 AM,59.0,55.4,88,29.95,6.2,SE,5.8,-,N/A,,Partly Cloudy,140,2013-10-10 06:15:00
8:45 AM,64.4,59.0,83,29.95,6.2,SSE,5.8,-,N/A,,Partly Cloudy,150,2013-10-10 06:45:00
9:15 AM,64.4,59.0,83,29.95,6.2,South,8.1,-,N/A,,Scattered Clouds,170,2013-10-10 07:15:00
9:45 AM,66.2,59.0,78,29.95,6.2,SSE,10.4,-,N/A,,Scattered Clouds,150,2013-10-10 07:45:00
10:15 AM,66.2,59.0,78,29.95,6.2,SSE,12.7,-,N/A,,Scattered Clouds,150,2013-10-10 08:15:00
10:45 AM,66.2,57.2,73,29.95,6.2,SSE,10.4,-,N/A,,Scattered Clouds,160,2013-10-10 08:45:00
11:15 AM,68.0,59.0,73,29.95,6.2,SSE,12.7,-,N/A,,Scattered Clouds,160,2013-10-10 09:15:00
11:45 AM,68.0,59.0,73,29.95,6.2,SSE,15.0,-,N/A,,Scattered Clouds,160,2013-10-10 09:45:00
12:15 PM,68.0,59.0,73,29.95,6.2,SSE,16.1,-,N/A,Rain,Light Rain,160,2013-10-10 10:15:00
12:45 PM,68.0,60.8,78,29.92,5.0,SSE,12.7,-,N/A,Rain,Light Rain,160,2013-10-10 10:45:00
1:15 PM,64.4,60.8,88,29.92,5.0,SSE,10.4,-,N/A,Rain,Light Rain,160,2013-10-10 11:15:00
1:45 PM,64.4,60.8,88,29.92,3.1,SSE,13.8,-,N/A,Rain,Rain,160,2013-10-10 11:45:00
2:15 PM,64.4,60.8,88,29.89,3.7,South,10.4,-,N/A,Rain,Light Rain,180,2013-10-10 12:15:00
2:45 PM,64.4,60.8,88,29.89,5.6,SSE,9.2,-,N/A,Rain,Light Rain,150,2013-10-10 12:45:00
3:15 PM,66.2,60.8,83,29.89,5.0,South,8.1,-,N/A,Rain,Light Rain,170,2013-10-10 13:15:00
3:45 PM,64.4,60.8,88,29.89,5.0,South,5.8,-,N/A,Rain,Light Rain,190,2013-10-10 13:45:00
4:15 PM,66.2,62.6,88,29.89,5.6,South,8.1,-,N/A,,Scattered Clouds,180,2013-10-10 14:15:00
4:45 PM,68.0,64.4,88,29.86,5.6,South,5.8,-,N/A,,Scattered Clouds,180,2013-10-10 14:45:00
5:15 PM,68.0,64.4,88,29.86,5.0,South,6.9,-,N/A,,Scattered Clouds,180,2013-10-10 15:15:00
5:45 PM,68.0,62.6,83,29.86,5.6,SSW,6.9,-,N/A,,Scattered Clouds,200,2013-10-10 15:45:00
6:15 PM,68.0,62.6,83,29.86,6.2,SSW,6.9,-,N/A,,Scattered Clouds,200,2013-10-10 16:15:00
6:45 PM,66.2,60.8,83,29.86,6.2,South,4.6,-,N/A,,Partly Cloudy,180,2013-10-10 16:45:00
7:15 PM,64.4,60.8,88,29.86,6.2,South,3.5,-,N/A,,Partly Cloudy,180,2013-10-10 17:15:00
7:45 PM,64.4,60.8,88,29.83,6.2,SSE,4.6,-,N/A,,Partly Cloudy,160,2013-10-10 17:45:00
8:15 PM,62.6,60.8,94,29.83,6.2,SSE,8.1,-,N/A,,Partly Cloudy,150,2013-10-10 18:15:00
8:45 PM,62.6,60.8,94,29.83,6.2,SSE,6.9,-,N/A,,Scattered Clouds,150,2013-10-10 18:45:00
9:15 PM,64.4,60.8,88,29.83,6.2,SE,10.4,-,N/A,,Scattered Clouds,140,2013-10-10 19:15:00
9:45 PM,64.4,60.8,88,29.83,6.2,SSE,8.1,-,N/A,,Scattered Clouds,150,2013-10-10 19:45:00
10:15 PM,64.4,59.0,83,29.83,6.2,SSE,6.9,-,N/A,,Partly Cloudy,160,2013-10-10 20:15:00
10:45 PM,64.4,59.0,83,29.83,6.2,SSE,6.9,-,N/A,,Partly Cloudy,160,2013-10-10 20:45:00
11:15 PM,64.4,59.0,83,29.83,6.2,SSE,8.1,-,N/A,Rain,Light Rain,160,2013-10-10 21:15:00
11:45 PM,64.4,59.0,83,29.83,6.2,South,5.8,-,N/A,,Scattered Clouds,190,2013-10-10 21:45:00